Time;durP1;ratioP1;P1;durP2;ratioP2;P2;SDS_P1;SDS_P2;PMS_P1;PMS_P2;Temp;Humidity;BMP_temperature;BMP_pressure;BME280_temperature;BME280_humidity;BME280_pressure;Samples;Min_cycle;Max_cycle;Signal;HPM_P1;HPM_P2
2024/03/19 06:46:27;;;;;;;20.02;14.32;;;;;;;;;;4939251;28;20060;-61
2024/03/19 06:48:54;;;;;;;22.95;17.10;;;;;;;;;;5056675;28;20060;-62
2024/03/19 06:51:21;;;;;;;23.80;17.10;;;;;;;;;;5047619;28;20057;-61
2024/03/19 06:53:48;;;;;;;20.58;16.50;;;;;;;;;;5051636;28;20498;-62
2024/03/19 06:56:15;;;;;;;25.90;17.45;;;;;;;;;;5043088;28;20499;-62
2024/03/19 06:58:43;;;;;;;23.33;16.08;;;;;;;;;;5068921;28;20127;-62
2024/03/19 07:01:10;;;;;;;22.08;16.05;;;;;;;;;;5069512;28;20055;-61
2024/03/19 07:03:39;;;;;;;22.52;15.65;;;;;;;;;;5073657;28;20413;-62
2024/03/19 07:06:07;;;;;;;23.43;16.20;;;;;;;;;;5059577;28;20482;-62
2024/03/19 07:08:34;;;;;;;21.95;15.02;;;;;;;;;;5053551;28;20076;-62
2024/03/19 07:11:01;;;;;;;19.42;14.43;;;;;;;;;;5069398;28;20083;-62
2024/03/19 07:13:29;;;;;;;21.17;14.40;;;;;;;;;;5049077;28;20049;-62
2024/03/19 07:15:56;;;;;;;20.02;14.82;;;;;;;;;;5039272;28;20049;-61
2024/03/19 07:18:23;;;;;;;21.02;13.60;;;;;;;;;;5040799;28;20076;-62
2024/03/19 07:20:55;;;;;;;23.42;14.15;;;;;;;;;;5039992;28;20057;-62
2024/03/19 07:23:22;;;;;;;19.50;13.55;;;;;;;;;;5033171;28;20515;-62
2024/03/19 07:25:49;;;;;;;20.98;15.00;;;;;;;;;;5034195;28;20060;-63
2024/03/19 07:28:16;;;;;;;18.58;13.38;;;;;;;;;;5069284;28;20057;-63
2024/03/19 07:30:42;;;;;;;22.20;14.52;;;;;;;;;;5072277;28;20056;-63
2024/03/19 07:33:09;;;;;;;20.25;13.57;;;;;;;;;;5067246;28;20056;-63
2024/03/19 07:35:37;;;;;;;22.60;14.68;;;;;;;;;;5054506;28;20422;-62
2024/03/19 07:38:06;;;;;;;20.13;13.82;;;;;;;;;;5033476;28;20517;-62
2024/03/19 07:40:33;;;;;;;21.13;14.10;;;;;;;;;;5033858;28;20053;-62
2024/03/19 07:42:59;;;;;;;23.00;14.30;;;;;;;;;;5056209;28;20047;-62
2024/03/19 07:45:26;;;;;;;19.10;14.45;;;;;;;;;;5080543;28;20075;-62
2024/03/19 07:47:53;;;;;;;21.17;14.55;;;;;;;;;;5073689;28;20048;-62
2024/03/19 07:50:23;;;;;;;21.13;15.63;;;;;;;;;;5070131;28;20502;-62
2024/03/19 07:52:49;;;;;;;23.67;15.23;;;;;;;;;;5082485;28;20055;-61
2024/03/19 07:55:18;;;;;;;23.08;14.85;;;;;;;;;;5093098;28;20056;-62
2024/03/19 07:57:45;;;;;;;21.48;14.43;;;;;;;;;;5092912;28;20048;-62
2024/03/19 08:00:14;;;;;;;22.35;15.20;;;;;;;;;;5083542;28;20061;-62
2024/03/19 08:02:41;;;;;;;20.40;14.02;;;;;;;;;;5068606;28;20410;-62
2024/03/19 08:05:08;;;;;;;22.55;13.02;;;;;;;;;;5087247;28;20062;-62
2024/03/19 08:07:36;;;;;;;21.30;13.30;;;;;;;;;;5073112;28;20474;-62
2024/03/19 08:10:03;;;;;;;18.45;13.13;;;;;;;;;;5071112;28;20052;-61
2024/03/19 08:12:31;;;;;;;18.55;12.95;;;;;;;;;;5066138;28;20052;-61
2024/03/19 08:15:00;;;;;;;21.50;12.20;;;;;;;;;;5069161;28;20486;-61
2024/03/19 08:17:27;;;;;;;23.77;14.38;;;;;;;;;;5071959;28;20064;-62
2024/03/19 08:19:54;;;;;;;21.80;13.02;;;;;;;;;;5072912;28;20060;-61
2024/03/19 08:22:21;;;;;;;18.38;12.27;;;;;;;;;;5070864;28;20474;-62
2024/03/19 08:24:48;;;;;;;22.02;12.25;;;;;;;;;;5071968;28;20048;-62
2024/03/19 08:27:15;;;;;;;21.73;12.55;;;;;;;;;;5078346;28;20481;-60
2024/03/19 08:29:43;;;;;;;16.35;11.80;;;;;;;;;;5052991;28;20056;-62
2024/03/19 08:32:10;;;;;;;19.83;12.55;;;;;;;;;;5069519;28;20063;-62
2024/03/19 08:34:37;;;;;;;20.60;12.40;;;;;;;;;;5092470;28;20059;-62
2024/03/19 08:37:05;;;;;;;18.63;12.30;;;;;;;;;;5062447;28;20053;-62
2024/03/19 08:39:32;;;;;;;16.50;12.00;;;;;;;;;;5052577;28;20061;-62
2024/03/19 08:41:59;;;;;;;19.55;11.50;;;;;;;;;;5057228;28;20052;-62
2024/03/19 08:44:26;;;;;;;21.70;12.68;;;;;;;;;;5060532;28;20049;-62
2024/03/19 08:46:54;;;;;;;16.27;11.60;;;;;;;;;;5066796;28;20060;-62
2024/03/19 08:49:21;;;;;;;16.52;12.27;;;;;;;;;;5077112;28;20052;-62
2024/03/19 08:51:47;;;;;;;16.85;12.45;;;;;;;;;;5070958;28;20394;-62
2024/03/19 08:54:14;;;;;;;16.80;12.18;;;;;;;;;;5051736;28;20053;-62
2024/03/19 08:56:41;;;;;;;18.77;12.02;;;;;;;;;;5052329;28;20060;-62
2024/03/19 08:59:08;;;;;;;18.35;11.88;;;;;;;;;;5075483;28;20059;-62
2024/03/19 09:01:35;;;;;;;17.08;11.60;;;;;;;;;;5052219;28;20052;-62
2024/03/19 09:04:05;;;;;;;18.05;12.02;;;;;;;;;;5052142;28;20044;-62
2024/03/19 09:06:32;;;;;;;20.92;12.95;;;;;;;;;;5053979;28;20057;-62
2024/03/19 09:08:59;;;;;;;17.85;11.25;;;;;;;;;;5089942;28;20056;-62
2024/03/19 09:11:31;;;;;;;17.40;11.77;;;;;;;;;;5092459;28;20139;-62
2024/03/19 09:13:58;;;;;;;16.88;11.43;;;;;;;;;;5090932;28;20052;-62
2024/03/19 09:16:25;;;;;;;17.58;11.48;;;;;;;;;;5075805;28;20056;-62
2024/03/19 09:18:51;;;;;;;20.73;11.13;;;;;;;;;;5084778;28;20051;-62
2024/03/19 09:21:20;;;;;;;19.98;11.45;;;;;;;;;;5082031;28;20414;-62
2024/03/19 09:23:47;;;;;;;17.88;12.43;;;;;;;;;;5069118;28;20055;-62
2024/03/19 09:26:14;;;;;;;17.55;11.57;;;;;;;;;;5092056;28;20075;-63
2024/03/19 09:28:40;;;;;;;15.18;11.25;;;;;;;;;;5091262;28;20052;-61
2024/03/19 09:31:07;;;;;;;15.85;10.80;;;;;;;;;;5092343;28;20056;-63
2024/03/19 09:33:34;;;;;;;14.57;11.13;;;;;;;;;;5088425;28;20067;-63
2024/03/19 09:36:01;;;;;;;17.23;11.13;;;;;;;;;;5089871;28;20052;-63
2024/03/19 09:38:31;;;;;;;14.80;10.85;;;;;;;;;;5055252;28;20053;-63
2024/03/19 09:41:02;;;;;;;16.92;9.60;;;;;;;;;;5055820;28;20053;-63
2024/03/19 09:43:31;;;;;;;16.95;11.27;;;;;;;;;;5068669;28;20052;-62
2024/03/19 09:45:59;;;;;;;13.35;10.50;;;;;;;;;;5074306;28;20506;-62
2024/03/19 09:48:26;;;;;;;17.27;11.63;;;;;;;;;;5056041;28;20053;-62
2024/03/19 09:50:53;;;;;;;15.70;10.45;;;;;;;;;;5054818;28;20060;-62
2024/03/19 09:53:21;;;;;;;18.17;12.02;;;;;;;;;;5050314;28;20056;-62
2024/03/19 09:55:49;;;;;;;16.05;10.77;;;;;;;;;;5075613;28;20391;-62
2024/03/19 09:58:16;;;;;;;16.10;11.32;;;;;;;;;;5075091;28;20478;-63
2024/03/19 10:00:44;;;;;;;15.57;10.90;;;;;;;;;;5071577;28;20055;-62
2024/03/19 10:03:11;;;;;;;15.48;11.43;;;;;;;;;;5038746;28;20053;-62
2024/03/19 10:05:38;;;;;;;15.88;10.80;;;;;;;;;;5035224;28;20049;-62
2024/03/19 10:08:06;;;;;;;12.98;8.85;;;;;;;;;;5035698;28;20057;-63
2024/03/19 10:10:32;;;;;;;11.85;8.10;;;;;;;;;;5039052;28;20064;-62
2024/03/19 10:13:03;;;;;;;13.68;8.60;;;;;;;;;;5046104;28;20080;-62
2024/03/19 10:15:30;;;;;;;12.23;6.53;;;;;;;;;;5074418;28;20052;-62
2024/03/19 10:17:57;;;;;;;12.77;6.97;;;;;;;;;;5075476;28;20505;-61
2024/03/19 10:20:25;;;;;;;11.20;7.85;;;;;;;;;;5055549;28;20061;-60
2024/03/19 10:22:52;;;;;;;12.90;8.37;;;;;;;;;;5049082;28;20061;-62
2024/03/19 10:25:19;;;;;;;11.90;7.65;;;;;;;;;;5035014;28;20068;-62
2024/03/19 10:27:46;;;;;;;12.43;7.38;;;;;;;;;;5034809;28;20049;-62
2024/03/19 10:30:15;;;;;;;11.95;8.57;;;;;;;;;;5065965;28;20056;-62
2024/03/19 10:32:42;;;;;;;;;;;;;;;;;;5061431;28;20048;-61
2024/03/19 10:35:19;;;;;;;11.35;8.10;;;;;;;;;;5054991;28;19921;-62
2024/03/19 10:37:46;;;;;;;13.13;7.55;;;;;;;;;;5044797;28;20487;-62
2024/03/19 10:40:13;;;;;;;9.13;6.88;;;;;;;;;;5064133;28;20052;-62
2024/03/19 10:42:40;;;;;;;11.45;7.72;;;;;;;;;;5053012;28;20045;-62
2024/03/19 10:45:10;;;;;;;12.02;6.88;;;;;;;;;;5066945;28;20056;-62
2024/03/19 10:47:39;;;;;;;10.75;6.93;;;;;;;;;;5054633;28;20486;-62
2024/03/19 10:50:06;;;;;;;8.90;5.85;;;;;;;;;;5081459;28;20416;-62
2024/03/19 10:52:34;;;;;;;7.10;5.53;;;;;;;;;;5076290;28;20453;-62
2024/03/19 10:55:03;;;;;;;9.35;6.05;;;;;;;;;;5054779;28;20049;-62
2024/03/19 10:57:29;;;;;;;9.80;6.00;;;;;;;;;;5054362;28;20513;-62
2024/03/19 10:59:56;;;;;;;9.80;5.60;;;;;;;;;;5076863;28;20055;-62
2024/03/19 11:02:23;;;;;;;7.70;5.78;;;;;;;;;;5078665;28;20124;-62
2024/03/19 11:04:57;;;;;;;13.02;6.65;;;;;;;;;;5054122;28;20049;-62
2024/03/19 11:07:24;;;;;;;10.82;5.75;;;;;;;;;;5057277;28;20049;-62
2024/03/19 11:09:52;;;;;;;9.93;5.30;;;;;;;;;;5084475;28;20048;-62
2024/03/19 11:12:22;;;;;;;9.70;5.50;;;;;;;;;;5094622;28;20382;-62
2024/03/19 11:14:54;;;;;;;8.20;5.10;;;;;;;;;;5076745;28;20053;-62
2024/03/19 11:17:25;;;;;;;6.63;4.35;;;;;;;;;;5058015;28;20052;-62
2024/03/19 11:19:53;;;;;;;7.82;4.30;;;;;;;;;;5072272;28;20063;-62
2024/03/19 11:22:22;;;;;;;8.88;3.83;;;;;;;;;;5071225;28;20067;-62
2024/03/19 11:24:51;;;;;;;8.60;4.28;;;;;;;;;;5053902;28;20386;-62
2024/03/19 11:27:18;;;;;;;6.18;3.95;;;;;;;;;;5056598;28;20048;-62
2024/03/19 11:29:46;;;;;;;7.07;3.42;;;;;;;;;;5081584;28;20044;-62
2024/03/19 11:32:21;;;;;;;6.00;3.38;;;;;;;;;;5092178;28;20063;-62
2024/03/19 11:34:49;;;;;;;7.25;3.67;;;;;;;;;;5065742;28;20048;-62
2024/03/19 11:37:16;;;;;;;7.55;3.35;;;;;;;;;;5072559;28;20067;-62
2024/03/19 11:39:45;;;;;;;7.80;3.10;;;;;;;;;;5072603;28;20072;-62
2024/03/19 11:42:12;;;;;;;5.67;3.20;;;;;;;;;;5073761;28;20402;-62
2024/03/19 11:44:38;;;;;;;4.97;2.55;;;;;;;;;;5076428;28;20056;-61
2024/03/19 11:47:06;;;;;;;4.88;2.72;;;;;;;;;;5073498;28;20060;-61
2024/03/19 11:49:32;;;;;;;7.90;3.03;;;;;;;;;;5073209;28;20059;-61
2024/03/19 11:52:00;;;;;;;8.25;3.28;;;;;;;;;;5073062;28;20055;-61
2024/03/19 11:54:28;;;;;;;6.88;3.30;;;;;;;;;;5058058;28;20063;-61
2024/03/19 11:56:57;;;;;;;4.82;3.10;;;;;;;;;;5073214;28;20544;-61
2024/03/19 11:59:24;;;;;;;6.65;2.80;;;;;;;;;;5072063;28;20060;-61
2024/03/19 12:01:52;;;;;;;8.75;2.63;;;;;;;;;;5072166;28;20068;-61
2024/03/19 12:04:19;;;;;;;5.65;2.17;;;;;;;;;;5055197;28;20052;-61
2024/03/19 12:06:46;;;;;;;6.28;2.63;;;;;;;;;;5052861;28;20060;-61
2024/03/19 12:09:13;;;;;;;5.78;2.50;;;;;;;;;;5038803;28;20053;-61
2024/03/19 12:11:39;;;;;;;4.03;1.90;;;;;;;;;;5033464;28;20406;-61
2024/03/19 12:14:12;;;;;;;7.10;2.17;;;;;;;;;;5041712;28;20060;-61
2024/03/19 12:16:39;;;;;;;5.65;2.20;;;;;;;;;;5072861;28;20071;-61
2024/03/19 12:19:05;;;;;;;4.40;1.90;;;;;;;;;;5062955;28;20052;-61
2024/03/19 12:21:38;;;;;;;6.97;2.13;;;;;;;;;;5061832;28;20645;-61
2024/03/19 12:24:06;;;;;;;3.95;1.70;;;;;;;;;;5046321;28;20053;-61
2024/03/19 12:26:32;;;;;;;3.83;1.90;;;;;;;;;;5033040;28;20438;-61
2024/03/19 12:28:59;;;;;;;6.45;2.20;;;;;;;;;;5035975;28;20061;-60
2024/03/19 12:31:35;;;;;;;4.03;1.88;;;;;;;;;;5072812;28;20079;-61
2024/03/19 12:34:16;;;;;;;5.20;1.90;;;;;;;;;;5046995;28;20392;-61
2024/03/19 12:36:43;;;;;;;4.60;1.95;;;;;;;;;;5048634;28;20041;-61
2024/03/19 12:39:12;;;;;;;3.72;1.60;;;;;;;;;;5049788;28;20066;-61
2024/03/19 12:41:39;;;;;;;3.72;1.50;;;;;;;;;;5033043;28;20060;-60
2024/03/19 12:44:06;;;;;;;3.53;1.50;;;;;;;;;;5033606;28;20057;-63
2024/03/19 12:46:34;;;;;;;3.67;1.52;;;;;;;;;;5032439;28;20060;-62
2024/03/19 12:49:01;;;;;;;3.17;1.40;;;;;;;;;;5032524;28;20060;-62
2024/03/19 12:51:27;;;;;;;3.10;1.20;;;;;;;;;;5032631;28;20495;-62
2024/03/19 12:53:54;;;;;;;3.38;1.27;;;;;;;;;;5033631;28;20049;-62
2024/03/19 12:56:21;;;;;;;5.93;1.65;;;;;;;;;;5070408;28;20059;-62
2024/03/19 12:58:48;;;;;;;2.58;1.13;;;;;;;;;;5072705;28;20060;-62
2024/03/19 13:01:16;;;;;;;3.13;1.30;;;;;;;;;;5072022;28;20053;-64
2024/03/19 13:03:45;;;;;;;2.88;1.27;;;;;;;;;;5052642;28;20064;-60
2024/03/19 13:06:11;;;;;;;2.72;1.40;;;;;;;;;;5067071;28;20053;-62
2024/03/19 13:08:38;;;;;;;3.67;1.42;;;;;;;;;;5058710;28;20045;-62
2024/03/19 13:11:05;;;;;;;2.72;1.33;;;;;;;;;;5032524;28;20057;-62
2024/03/19 13:13:32;;;;;;;3.90;1.55;;;;;;;;;;5036338;28;20053;-62
2024/03/19 13:15:58;;;;;;;3.70;1.40;;;;;;;;;;5066964;28;20060;-62
2024/03/19 13:18:25;;;;;;;3.80;1.45;;;;;;;;;;5051877;28;20402;-61
2024/03/19 13:20:53;;;;;;;2.95;1.35;;;;;;;;;;5056284;28;20075;-61
2024/03/19 13:23:20;;;;;;;3.17;1.17;;;;;;;;;;5053840;28;20053;-61
2024/03/19 13:25:47;;;;;;;3.40;1.48;;;;;;;;;;5036308;28;20045;-61
2024/03/19 13:28:13;;;;;;;2.67;1.30;;;;;;;;;;5067311;28;20048;-62
2024/03/19 13:30:40;;;;;;;3.83;1.30;;;;;;;;;;5075322;28;20517;-62
2024/03/19 13:33:07;;;;;;;3.35;1.35;;;;;;;;;;5074539;28;20056;-61
2024/03/19 13:35:34;;;;;;;2.28;1.10;;;;;;;;;;5036350;28;20049;-62
2024/03/19 13:38:03;;;;;;;4.40;1.50;;;;;;;;;;5063835;28;20049;-62
2024/03/19 13:40:32;;;;;;;;;;;;;;;;;;5054058;28;20056;-61
2024/03/19 13:42:58;;;;;;;3.78;1.13;;;;;;;;;;5075836;28;19920;-62
2024/03/19 13:45:25;;;;;;;4.25;1.25;;;;;;;;;;5048865;28;20053;-61
2024/03/19 13:47:53;;;;;;;4.35;1.60;;;;;;;;;;5053227;28;20060;-62
2024/03/19 13:50:19;;;;;;;3.45;1.27;;;;;;;;;;5055949;28;20056;-62
2024/03/19 13:52:46;;;;;;;3.90;1.63;;;;;;;;;;5055449;28;20053;-62
2024/03/19 13:55:14;;;;;;;2.90;1.40;;;;;;;;;;5041289;28;20491;-62
2024/03/19 13:57:41;;;;;;;5.15;1.50;;;;;;;;;;5055447;28;20408;-62
2024/03/19 14:00:15;;;;;;;4.18;1.83;;;;;;;;;;5075144;28;20060;-62
2024/03/19 14:02:42;;;;;;;3.47;1.40;;;;;;;;;;5075665;28;20052;-61
2024/03/19 14:05:10;;;;;;;3.20;1.58;;;;;;;;;;5047509;28;20060;-59
2024/03/19 14:07:38;;;;;;;3.67;1.60;;;;;;;;;;5053212;28;20057;-61
2024/03/19 14:10:05;;;;;;;3.38;1.40;;;;;;;;;;5065508;28;20512;-61
2024/03/19 14:12:33;;;;;;;2.75;1.30;;;;;;;;;;5075226;28;20469;-61
2024/03/19 14:15:01;;;;;;;3.20;1.50;;;;;;;;;;5061419;28;20056;-61
2024/03/19 14:17:28;;;;;;;4.20;1.30;;;;;;;;;;5072727;28;20044;-61
2024/03/19 14:19:55;;;;;;;3.05;1.10;;;;;;;;;;5058863;28;20417;-61
2024/03/19 14:22:22;;;;;;;3.33;1.45;;;;;;;;;;5054984;28;20056;-61
2024/03/19 14:24:49;;;;;;;4.15;1.75;;;;;;;;;;5052602;28;20060;-60
2024/03/19 14:27:16;;;;;;;3.72;1.30;;;;;;;;;;5072529;28;20044;-60
2024/03/19 14:29:44;;;;;;;4.00;1.35;;;;;;;;;;5074556;28;20052;-61
2024/03/19 14:32:11;;;;;;;3.72;1.90;;;;;;;;;;5060656;28;20049;-61
2024/03/19 14:34:38;;;;;;;3.85;1.50;;;;;;;;;;5061433;28;20063;-61
2024/03/19 14:37:05;;;;;;;3.80;1.88;;;;;;;;;;5062125;28;20212;-61
2024/03/19 14:39:32;;;;;;;3.63;1.70;;;;;;;;;;5053051;28;20041;-60
2024/03/19 14:41:59;;;;;;;3.53;1.45;;;;;;;;;;5054745;28;20060;-63
2024/03/19 14:44:26;;;;;;;3.05;1.30;;;;;;;;;;5048447;28;20049;-59
2024/03/19 14:46:58;;;;;;;3.75;1.70;;;;;;;;;;5057536;28;20053;-62
2024/03/19 14:49:27;;;;;;;3.92;1.60;;;;;;;;;;5065450;28;20053;-60
2024/03/19 14:51:54;;;;;;;4.27;1.53;;;;;;;;;;5054478;28;20057;-60
2024/03/19 14:54:21;;;;;;;3.83;1.52;;;;;;;;;;5052786;28;20052;-60
2024/03/19 14:56:49;;;;;;;3.40;1.95;;;;;;;;;;5054296;28;20060;-60
2024/03/19 14:59:16;;;;;;;3.85;1.67;;;;;;;;;;5059871;28;20063;-61
2024/03/19 15:01:44;;;;;;;4.05;1.77;;;;;;;;;;5072335;28;20056;-60
2024/03/19 15:04:12;;;;;;;3.85;1.58;;;;;;;;;;5073854;28;20062;-59
2024/03/19 15:06:39;;;;;;;4.82;2.10;;;;;;;;;;5053943;28;20387;-61
2024/03/19 15:09:09;;;;;;;3.88;2.20;;;;;;;;;;5055108;28;20099;-61
2024/03/19 15:11:36;;;;;;;3.95;1.92;;;;;;;;;;5052249;28;20376;-61
2024/03/19 15:14:03;;;;;;;3.60;1.70;;;;;;;;;;5053965;28;20053;-61
2024/03/19 15:16:30;;;;;;;3.13;1.60;;;;;;;;;;5041918;28;20037;-61
2024/03/19 15:18:57;;;;;;;5.55;1.85;;;;;;;;;;5053598;28;20045;-61
2024/03/19 15:21:26;;;;;;;2.72;1.40;;;;;;;;;;5053845;28;20057;-61
2024/03/19 15:23:52;;;;;;;3.50;1.50;;;;;;;;;;5053881;28;20065;-61
2024/03/19 15:26:19;;;;;;;4.47;1.63;;;;;;;;;;5056180;28;20045;-61
2024/03/19 15:28:47;;;;;;;3.83;1.90;;;;;;;;;;5073881;28;20097;-61
2024/03/19 15:31:14;;;;;;;3.95;1.30;;;;;;;;;;5072904;28;20053;-60
2024/03/19 15:33:40;;;;;;;4.13;1.70;;;;;;;;;;5072964;28;20076;-61
2024/03/19 15:36:07;;;;;;;3.38;1.38;;;;;;;;;;5046282;28;20064;-61
2024/03/19 15:38:35;;;;;;;2.33;1.45;;;;;;;;;;5073324;28;20092;-61
2024/03/19 15:41:03;;;;;;;2.25;1.23;;;;;;;;;;5057032;28;20053;-61
2024/03/19 15:43:29;;;;;;;4.60;2.00;;;;;;;;;;5069427;28;20052;-61
2024/03/19 15:45:56;;;;;;;3.90;1.67;;;;;;;;;;5072598;28;20063;-61
2024/03/19 15:48:23;;;;;;;4.18;1.30;;;;;;;;;;5056438;28;20064;-61
2024/03/19 15:50:50;;;;;;;5.70;1.40;;;;;;;;;;5042553;28;20518;-61
2024/03/19 15:53:18;;;;;;;3.65;1.80;;;;;;;;;;5033236;28;20053;-60
2024/03/19 15:55:47;;;;;;;3.05;1.20;;;;;;;;;;5037489;28;20053;-61
2024/03/19 15:58:14;;;;;;;4.78;1.63;;;;;;;;;;5033659;28;20400;-61
2024/03/19 16:00:43;;;;;;;2.78;1.38;;;;;;;;;;5040059;28;20417;-62
2024/03/19 16:03:10;;;;;;;2.63;1.55;;;;;;;;;;5065261;28;20056;-62
2024/03/19 16:05:39;;;;;;;4.65;1.60;;;;;;;;;;5073123;28;20478;-62
2024/03/19 16:08:06;;;;;;;4.57;1.40;;;;;;;;;;5072567;28;20048;-62
2024/03/19 16:10:33;;;;;;;4.05;1.42;;;;;;;;;;5064739;28;20410;-62
2024/03/19 16:13:01;;;;;;;3.22;1.45;;;;;;;;;;5050662;28;20060;-61
2024/03/19 16:15:28;;;;;;;4.45;1.30;;;;;;;;;;5041644;28;20065;-62
2024/03/19 16:17:55;;;;;;;3.13;1.33;;;;;;;;;;5047495;28;20060;-61
2024/03/19 16:20:22;;;;;;;3.50;1.27;;;;;;;;;;5041048;28;20045;-61
2024/03/19 16:22:49;;;;;;;3.17;1.20;;;;;;;;;;5048750;28;20426;-61
2024/03/19 16:25:18;;;;;;;4.25;1.40;;;;;;;;;;5037609;28;20075;-61
2024/03/19 16:27:44;;;;;;;2.70;0.98;;;;;;;;;;5048985;28;20490;-62
2024/03/19 16:30:14;;;;;;;4.05;1.30;;;;;;;;;;5044139;28;20056;-62
2024/03/19 16:32:41;;;;;;;3.70;1.70;;;;;;;;;;5053790;28;20053;-62
2024/03/19 16:35:08;;;;;;;5.35;1.30;;;;;;;;;;5064573;28;20059;-62
2024/03/19 16:37:35;;;;;;;3.08;1.42;;;;;;;;;;5059557;28;20042;-62
2024/03/19 16:40:03;;;;;;;5.50;1.30;;;;;;;;;;5049586;28;20403;-62
2024/03/19 16:42:30;;;;;;;3.97;1.40;;;;;;;;;;5034531;28;20061;-61
2024/03/19 16:44:58;;;;;;;2.92;1.70;;;;;;;;;;5047626;28;20396;-61
2024/03/19 16:47:26;;;;;;;2.53;1.13;;;;;;;;;;5045446;28;20502;-62
2024/03/19 16:49:53;;;;;;;3.63;1.73;;;;;;;;;;5043246;28;20049;-61
2024/03/19 16:52:20;;;;;;;3.63;1.88;;;;;;;;;;5042890;28;20522;-61
2024/03/19 16:54:47;;;;;;;3.25;1.50;;;;;;;;;;5041724;28;20063;-62
2024/03/19 16:57:14;;;;;;;3.28;1.25;;;;;;;;;;5049132;28;20505;-62
2024/03/19 16:59:41;;;;;;;4.13;1.30;;;;;;;;;;5046525;28;20057;-61
2024/03/19 17:02:07;;;;;;;9.00;4.00;;;;;;;;;;5048108;28;20053;-61
2024/03/19 17:04:36;;;;;;;9.13;3.40;;;;;;;;;;5048896;28;20392;-61
2024/03/19 17:07:03;;;;;;;6.30;2.53;;;;;;;;;;5046234;28;20487;-62
2024/03/19 17:09:30;;;;;;;5.88;1.70;;;;;;;;;;5047581;28;20057;-62
2024/03/19 17:11:57;;;;;;;5.45;1.70;;;;;;;;;;5041838;28;20045;-62
2024/03/19 17:14:24;;;;;;;2.72;1.70;;;;;;;;;;5042855;28;20057;-62
2024/03/19 17:16:51;;;;;;;4.15;1.45;;;;;;;;;;5061778;28;20390;-61
2024/03/19 17:19:17;;;;;;;2.97;1.60;;;;;;;;;;5071401;28;20057;-61
2024/03/19 17:21:46;;;;;;;2.53;1.45;;;;;;;;;;5038781;28;20049;-61
2024/03/19 17:24:13;;;;;;;2.83;1.05;;;;;;;;;;5062490;28;20486;-62
2024/03/19 17:26:39;;;;;;;3.15;1.50;;;;;;;;;;5050391;28;20494;-62
2024/03/19 17:29:06;;;;;;;4.63;1.50;;;;;;;;;;5052266;28;20049;-62
2024/03/19 17:31:33;;;;;;;4.68;1.48;;;;;;;;;;5062146;28;20049;-62
2024/03/19 17:34:00;;;;;;;2.30;1.30;;;;;;;;;;5071455;28;20059;-62
2024/03/19 17:36:27;;;;;;;2.65;1.20;;;;;;;;;;5072008;28;20482;-62
2024/03/19 17:38:55;;;;;;;4.22;1.13;;;;;;;;;;5068879;28;20048;-62
2024/03/19 17:41:22;;;;;;;2.35;1.17;;;;;;;;;;5033025;28;20406;-62
2024/03/19 17:43:49;;;;;;;6.22;1.83;;;;;;;;;;5034803;28;20064;-62
2024/03/19 17:46:15;;;;;;;4.32;1.50;;;;;;;;;;5067045;28;20060;-62
2024/03/19 17:48:42;;;;;;;5.13;1.60;;;;;;;;;;5053815;28;20052;-62
2024/03/19 17:51:10;;;;;;;2.55;1.20;;;;;;;;;;5071319;28;20119;-62
2024/03/19 17:53:36;;;;;;;4.32;1.50;;;;;;;;;;5088466;28;20059;-63
2024/03/19 17:56:05;;;;;;;3.85;1.42;;;;;;;;;;5092070;28;20052;-63
2024/03/19 17:58:32;;;;;;;4.20;1.27;;;;;;;;;;5071560;28;20075;-62
2024/03/19 18:00:59;;;;;;;7.30;1.60;;;;;;;;;;5082156;28;20436;-62
2024/03/19 18:03:26;;;;;;;3.17;1.60;;;;;;;;;;5095715;28;20056;-63
2024/03/19 18:05:53;;;;;;;3.63;1.65;;;;;;;;;;5087785;28;20047;-62
2024/03/19 18:08:20;;;;;;;2.45;1.50;;;;;;;;;;5079639;28;20048;-62
2024/03/19 18:10:47;;;;;;;4.68;1.73;;;;;;;;;;5081385;28;20052;-61
2024/03/19 18:13:15;;;;;;;4.03;2.75;;;;;;;;;;5061182;28;20064;-63
2024/03/19 18:15:42;;;;;;;6.03;2.60;;;;;;;;;;5067506;28;20056;-62
2024/03/19 18:18:09;;;;;;;7.05;2.60;;;;;;;;;;5063562;28;20595;-62
2024/03/19 18:20:36;;;;;;;8.40;3.05;;;;;;;;;;5054871;28;20057;-62
2024/03/19 18:23:03;;;;;;;5.05;2.92;;;;;;;;;;5055239;28;20052;-62
2024/03/19 18:25:30;;;;;;;5.25;2.65;;;;;;;;;;5055506;28;20064;-62
2024/03/19 18:27:57;;;;;;;7.20;4.22;;;;;;;;;;5073935;28;20051;-62
2024/03/19 18:30:26;;;;;;;10.50;4.68;;;;;;;;;;5094340;28;20062;-62
2024/03/19 18:32:53;;;;;;;6.55;3.55;;;;;;;;;;5075064;28;20056;-62
2024/03/19 18:35:19;;;;;;;6.78;2.70;;;;;;;;;;5079190;28;20048;-63
2024/03/19 18:37:46;;;;;;;6.25;2.90;;;;;;;;;;5088692;28;20040;-63
2024/03/19 18:40:15;;;;;;;5.85;2.40;;;;;;;;;;5070449;28;20053;-62
2024/03/19 18:42:42;;;;;;;3.85;2.47;;;;;;;;;;5055420;28;20057;-62
2024/03/19 18:45:10;;;;;;;6.80;2.33;;;;;;;;;;5052068;28;20068;-62
2024/03/19 18:47:38;;;;;;;5.18;2.45;;;;;;;;;;5037959;28;20041;-62
2024/03/19 18:50:06;;;;;;;6.30;2.35;;;;;;;;;;5051145;28;20056;-62
2024/03/19 18:52:34;;;;;;;9.32;2.78;;;;;;;;;;5051854;28;20125;-62
2024/03/19 18:55:01;;;;;;;4.72;2.90;;;;;;;;;;5039421;28;20053;-62
2024/03/19 18:57:28;;;;;;;5.95;2.90;;;;;;;;;;5050787;28;20061;-62
2024/03/19 18:59:55;;;;;;;7.15;2.97;;;;;;;;;;5043759;28;20060;-62
2024/03/19 19:02:22;;;;;;;4.15;2.80;;;;;;;;;;5058085;28;20050;-63
2024/03/19 19:04:50;;;;;;;7.45;2.60;;;;;;;;;;5039907;28;20054;-62
2024/03/19 19:07:17;;;;;;;5.82;3.15;;;;;;;;;;5051183;28;20052;-62
2024/03/19 19:09:46;;;;;;;7.47;3.63;;;;;;;;;;5057288;28;20500;-62
2024/03/19 19:12:13;;;;;;;4.07;2.80;;;;;;;;;;5058203;28;20055;-62
2024/03/19 19:14:39;;;;;;;5.93;2.80;;;;;;;;;;5034525;28;20080;-62
2024/03/19 19:17:07;;;;;;;5.40;3.08;;;;;;;;;;5053317;28;20053;-62
2024/03/19 19:19:34;;;;;;;8.38;2.80;;;;;;;;;;5066836;28;20049;-62
2024/03/19 19:22:03;;;;;;;4.47;2.72;;;;;;;;;;5072366;28;20055;-62
2024/03/19 19:24:30;;;;;;;;;;;;;;;;;;5054785;28;20060;-62
2024/03/19 19:26:57;;;;;;;7.68;3.05;;;;;;;;;;5046956;28;20377;-63
2024/03/19 19:29:24;;;;;;;5.55;2.90;;;;;;;;;;5052364;28;20047;-62
2024/03/19 19:31:51;;;;;;;7.05;3.30;;;;;;;;;;5054746;28;20049;-62
2024/03/19 19:34:19;;;;;;;4.28;2.33;;;;;;;;;;5052304;28;20052;-62
2024/03/19 19:36:46;;;;;;;4.68;2.33;;;;;;;;;;5053811;28;20064;-62
2024/03/19 19:39:17;;;;;;;4.68;3.20;;;;;;;;;;5053489;28;20489;-62
2024/03/19 19:41:43;;;;;;;4.70;3.17;;;;;;;;;;5057862;28;20049;-61
2024/03/19 19:44:10;;;;;;;6.95;3.42;;;;;;;;;;5052214;28;20413;-62
2024/03/19 19:46:38;;;;;;;6.95;2.83;;;;;;;;;;5052465;28;20056;-62
2024/03/19 19:49:05;;;;;;;5.97;3.03;;;;;;;;;;5053266;28;20402;-61
2024/03/19 19:51:30;;;;;;;5.55;2.75;;;;;;;;;;5053157;28;20060;-62
2024/03/19 19:53:57;;;;;;;4.93;2.50;;;;;;;;;;5051843;28;20478;-61
2024/03/19 19:56:26;;;;;;;3.38;2.40;;;;;;;;;;5040456;28;20052;-61
2024/03/19 19:58:52;;;;;;;5.25;2.40;;;;;;;;;;5047779;28;20060;-62
2024/03/19 20:01:19;;;;;;;7.40;2.60;;;;;;;;;;5050822;28;20079;-61
2024/03/19 20:03:47;;;;;;;3.38;2.15;;;;;;;;;;5051717;28;20054;-60
2024/03/19 20:06:14;;;;;;;5.07;2.40;;;;;;;;;;5033081;28;20483;-61
2024/03/19 20:08:40;;;;;;;5.32;2.25;;;;;;;;;;5032990;28;20049;-62
2024/03/19 20:11:07;;;;;;;3.75;2.17;;;;;;;;;;5039569;28;20053;-62
2024/03/19 20:13:35;;;;;;;5.15;2.13;;;;;;;;;;5039796;28;20057;-62
2024/03/19 20:16:03;;;;;;;4.93;1.83;;;;;;;;;;5071180;28;20056;-62
2024/03/19 20:18:30;;;;;;;5.82;2.17;;;;;;;;;;5032418;28;20057;-61
2024/03/19 20:20:57;;;;;;;4.35;2.38;;;;;;;;;;5032107;28;20411;-61
2024/03/19 20:23:24;;;;;;;6.55;2.40;;;;;;;;;;5045388;28;20057;-61
2024/03/19 20:25:51;;;;;;;3.75;2.10;;;;;;;;;;5048793;28;20049;-61
2024/03/19 20:28:18;;;;;;;4.32;2.22;;;;;;;;;;5052580;28;20111;-61
2024/03/19 20:30:46;;;;;;;6.45;3.05;;;;;;;;;;5066212;28;20051;-61
2024/03/19 20:33:13;;;;;;;10.82;3.47;;;;;;;;;;5051635;28;20049;-61
2024/03/19 20:35:40;;;;;;;6.15;4.30;;;;;;;;;;5052464;28;20478;-62
2024/03/19 20:38:08;;;;;;;4.70;2.88;;;;;;;;;;5052689;28;20064;-62
2024/03/19 20:40:36;;;;;;;5.30;2.30;;;;;;;;;;5052674;28;20060;-62
2024/03/19 20:43:03;;;;;;;6.30;2.70;;;;;;;;;;5050758;28;20064;-62
2024/03/19 20:45:30;;;;;;;5.15;2.55;;;;;;;;;;5059446;28;20057;-62
2024/03/19 20:47:58;;;;;;;6.88;2.80;;;;;;;;;;5067219;28;20052;-61
2024/03/19 20:50:25;;;;;;;4.18;2.17;;;;;;;;;;5092599;28;20052;-61
2024/03/19 20:52:52;;;;;;;6.10;2.75;;;;;;;;;;5056181;28;20051;-62
2024/03/19 20:55:19;;;;;;;3.60;2.33;;;;;;;;;;5072438;28;20052;-62
2024/03/19 20:57:46;;;;;;;6.10;2.53;;;;;;;;;;5084628;28;20055;-62
2024/03/19 21:00:14;;;;;;;4.80;2.40;;;;;;;;;;5088095;28;20063;-62
2024/03/19 21:02:42;;;;;;;6.65;2.35;;;;;;;;;;5072654;28;20053;-62
2024/03/19 21:05:10;;;;;;;4.93;2.65;;;;;;;;;;5072375;28;20059;-62
2024/03/19 21:07:37;;;;;;;4.75;2.65;;;;;;;;;;5072524;28;20056;-62
2024/03/19 21:10:06;;;;;;;6.90;2.25;;;;;;;;;;5072173;28;20059;-62
2024/03/19 21:12:33;;;;;;;6.10;2.58;;;;;;;;;;5087713;28;20055;-62
2024/03/19 21:15:00;;;;;;;5.40;2.58;;;;;;;;;;5092173;28;20047;-62
2024/03/19 21:17:26;;;;;;;4.82;2.40;;;;;;;;;;5092928;28;20056;-62
2024/03/19 21:19:53;;;;;;;5.57;2.90;;;;;;;;;;5092719;28;20085;-62
2024/03/19 21:22:22;;;;;;;5.40;2.90;;;;;;;;;;5076868;28;20052;-62
2024/03/19 21:24:49;;;;;;;5.93;2.97;;;;;;;;;;5087168;28;20051;-60